Time;durP1;ratioP1;P1;durP2;ratioP2;P2;SDS_P1;SDS_P2;PMS_P1;PMS_P2;Temp;Humidity;BMP_temperature;BMP_pressure;BME280_temperature;BME280_humidity;BME280_pressure;Samples;Min_cycle;Max_cycle;Signal;HPM_P1;HPM_P2
2021/07/02 00:00:09;;;;;;;13.97;8.03;;;13.50;99.90;;;;;;5084134;28;20599;-84
2021/07/02 00:02:35;;;;;;;10.43;8.00;;;13.50;99.90;;;;;;5079384;28;20213;-84
2021/07/02 00:05:02;;;;;;;10.57;7.60;;;13.50;99.90;;;;;;5079192;28;20209;-84
2021/07/02 00:07:27;;;;;;;10.20;7.70;;;13.50;99.90;;;;;;5080300;28;20204;-84
2021/07/02 00:09:53;;;;;;;11.40;7.63;;;13.50;99.90;;;;;;5078567;28;20678;-85
2021/07/02 00:12:19;;;;;;;9.63;8.13;;;13.50;99.90;;;;;;5078641;28;20222;-84
2021/07/02 00:14:44;;;;;;;11.33;7.50;;;13.50;99.90;;;;;;5078636;28;20240;-84
2021/07/02 00:17:10;;;;;;;12.60;7.77;;;13.60;99.90;;;;;;5080184;28;20181;-84
2021/07/02 00:19:36;;;;;;;11.47;7.83;;;13.60;99.90;;;;;;5078509;28;20640;-84
2021/07/02 00:22:02;;;;;;;9.43;7.43;;;13.60;99.90;;;;;;5078754;28;20187;-84
2021/07/02 00:24:27;;;;;;;9.23;6.93;;;13.60;99.90;;;;;;5079614;28;20180;-84
2021/07/02 00:26:53;;;;;;;10.33;7.43;;;13.60;99.90;;;;;;5078643;28;20183;-84
2021/07/02 00:29:19;;;;;;;9.57;7.33;;;13.60;99.90;;;;;;5077799;28;20196;-84
2021/07/02 00:31:44;;;;;;;9.30;7.90;;;13.50;99.90;;;;;;5076685;28;20264;-84
2021/07/02 00:34:10;;;;;;;8.20;6.93;;;13.50;99.90;;;;;;5077653;28;20169;-84
2021/07/02 00:36:36;;;;;;;13.57;7.97;;;13.50;99.90;;;;;;5076194;28;20653;-84
2021/07/02 00:39:01;;;;;;;9.43;7.23;;;13.40;99.90;;;;;;5074932;28;20204;-84
2021/07/02 00:41:27;;;;;;;11.20;7.27;;;13.40;99.90;;;;;;5076001;28;20276;-84
2021/07/02 00:43:55;;;;;;;9.13;7.17;;;13.30;99.90;;;;;;5079986;28;20185;-84
2021/07/02 00:46:21;;;;;;;8.83;7.07;;;13.30;99.90;;;;;;5085372;28;20169;-84
2021/07/02 00:48:47;;;;;;;10.03;7.13;;;13.20;99.90;;;;;;5080569;28;20223;-84
2021/07/02 00:51:13;;;;;;;9.67;7.57;;;13.20;99.90;;;;;;5080710;28;20682;-84
2021/07/02 00:53:41;;;;;;;13.13;7.57;;;13.20;99.90;;;;;;5079468;28;20177;-84
2021/07/02 00:56:09;;;;;;;10.93;7.40;;;13.20;99.90;;;;;;5080733;28;20173;-84
2021/07/02 00:58:34;;;;;;;8.83;7.17;;;13.20;99.90;;;;;;5079573;28;20274;-84
2021/07/02 01:01:00;;;;;;;10.30;6.97;;;13.20;99.90;;;;;;5080256;28;20180;-84
2021/07/02 01:03:26;;;;;;;12.00;8.47;;;13.30;99.90;;;;;;5079946;28;20273;-84
2021/07/02 01:05:54;;;;;;;8.50;6.80;;;13.30;99.90;;;;;;5084750;28;20181;-84
2021/07/02 01:08:19;;;;;;;10.10;7.77;;;13.30;99.90;;;;;;5079058;28;20240;-84
2021/07/02 01:10:45;;;;;;;11.57;7.23;;;13.30;99.90;;;;;;5083053;28;20192;-84
2021/07/02 01:13:12;;;;;;;8.93;7.43;;;13.30;99.90;;;;;;5078192;28;20283;-84
2021/07/02 01:15:37;;;;;;;8.53;6.97;;;13.30;99.90;;;;;;5079560;28;20613;-84
2021/07/02 01:18:08;;;;;;;11.00;8.10;;;13.30;99.90;;;;;;5079531;28;20224;-84
2021/07/02 01:20:34;;;;;;;12.33;7.80;;;13.30;99.90;;;;;;5078033;28;20184;-84
2021/07/02 01:23:00;;;;;;;12.90;8.67;;;13.40;99.90;;;;;;5078937;28;20229;-84
2021/07/02 01:25:29;;;;;;;11.30;7.90;;;13.40;99.90;;;;;;5078197;28;20207;-84
2021/07/02 01:27:55;;;;;;;15.10;8.20;;;13.40;99.90;;;;;;5079756;28;20218;-84
2021/07/02 01:30:21;;;;;;;12.80;8.50;;;13.40;99.90;;;;;;5079465;28;20510;-84
2021/07/02 01:32:47;;;;;;;12.70;9.13;;;13.40;99.90;;;;;;5079932;28;20177;-84
2021/07/02 01:35:13;;;;;;;10.63;8.20;;;13.40;99.90;;;;;;5078446;28;20299;-84
2021/07/02 01:37:38;;;;;;;11.37;7.87;;;13.30;99.90;;;;;;5078160;28;20249;-84
2021/07/02 01:40:05;;;;;;;9.47;7.63;;;13.30;99.90;;;;;;5079067;28;20223;-84
2021/07/02 01:42:30;;;;;;;9.37;7.60;;;13.30;99.90;;;;;;5080590;28;20179;-84
2021/07/02 01:44:56;;;;;;;13.33;8.33;;;13.20;99.90;;;;;;5078848;28;20176;-84
2021/07/02 01:47:22;;;;;;;9.70;7.13;;;13.30;99.90;;;;;;5080072;28;20217;-84
2021/07/02 01:49:48;;;;;;;12.30;7.83;;;13.20;99.90;;;;;;5080086;28;20559;-84
2021/07/02 01:52:14;;;;;;;13.57;8.23;;;13.10;99.90;;;;;;5078679;28;20228;-84
2021/07/02 01:54:40;;;;;;;10.53;7.73;;;13.10;99.90;;;;;;5077939;28;20176;-84
2021/07/02 01:57:13;;;;;;;11.00;7.73;;;13.10;99.90;;;;;;5080462;28;20691;-84
2021/07/02 01:59:38;;;;;;;10.57;7.77;;;13.00;99.90;;;;;;5078613;28;20212;-84
2021/07/02 02:02:04;;;;;;;9.23;7.80;;;12.90;99.90;;;;;;5078096;28;20180;-84
2021/07/02 02:04:30;;;;;;;10.47;7.87;;;12.90;99.90;;;;;;5078810;28;20180;-84
2021/07/02 02:06:55;;;;;;;11.33;7.67;;;12.80;99.90;;;;;;5079850;28;20626;-84
2021/07/02 02:09:21;;;;;;;10.57;8.30;;;12.80;99.90;;;;;;5079793;28;20193;-84
2021/07/02 02:11:47;;;;;;;11.63;8.43;;;12.90;99.90;;;;;;5080041;28;20176;-84
2021/07/02 02:14:12;;;;;;;9.93;7.67;;;12.80;99.90;;;;;;5082371;28;20183;-84
2021/07/02 02:16:41;;;;;;;15.60;8.33;;;12.80;99.90;;;;;;5083965;28;20168;-84
2021/07/02 02:19:07;;;;;;;11.37;8.00;;;12.80;99.90;;;;;;5082773;28;20231;-84
2021/07/02 02:21:32;;;;;;;10.73;8.53;;;12.80;99.90;;;;;;5082374;28;20180;-84
2021/07/02 02:23:58;;;;;;;12.43;7.90;;;12.80;99.90;;;;;;5084582;28;20169;-84
2021/07/02 02:26:24;;;;;;;10.87;7.73;;;12.70;99.90;;;;;;5084434;28;20180;-84
2021/07/02 02:28:49;;;;;;;10.60;7.70;;;12.80;99.90;;;;;;5082339;28;20302;-84
2021/07/02 02:31:15;;;;;;;11.20;7.70;;;12.70;99.90;;;;;;5082591;28;20203;-84
2021/07/02 02:33:40;;;;;;;8.67;7.37;;;12.70;99.90;;;;;;5083546;28;20174;-84
2021/07/02 02:36:06;;;;;;;10.07;7.80;;;12.70;99.90;;;;;;5083076;28;20173;-84
2021/07/02 02:38:32;;;;;;;10.60;7.53;;;12.70;99.90;;;;;;5083045;28;20204;-84
2021/07/02 02:40:58;;;;;;;9.77;8.03;;;12.60;99.90;;;;;;5082542;28;20207;-84
2021/07/02 02:43:24;;;;;;;10.57;7.90;;;12.60;99.90;;;;;;5083210;28;20195;-84
2021/07/02 02:45:50;;;;;;;10.83;8.80;;;12.60;99.90;;;;;;5082081;28;20719;-84
2021/07/02 02:48:15;;;;;;;9.57;7.63;;;12.50;99.90;;;;;;5083943;28;20204;-84
2021/07/02 02:50:41;;;;;;;11.83;7.43;;;12.50;99.90;;;;;;5083820;28;20657;-84
2021/07/02 02:53:07;;;;;;;11.60;7.87;;;12.50;99.90;;;;;;5082215;28;20175;-84
2021/07/02 02:55:32;;;;;;;10.53;7.90;;;12.50;99.90;;;;;;5082797;28;20701;-84
2021/07/02 02:57:58;;;;;;;14.23;8.60;;;12.40;99.90;;;;;;5084431;28;20267;-85
2021/07/02 03:00:24;;;;;;;13.40;8.10;;;12.40;99.90;;;;;;5083778;28;20186;-84
2021/07/02 03:02:49;;;;;;;13.27;8.53;;;12.40;99.90;;;;;;5088128;28;20232;-84
2021/07/02 03:05:15;;;;;;;9.93;8.07;;;12.40;99.90;;;;;;5079955;28;20204;-84
2021/07/02 03:07:42;;;;;;;11.77;7.90;;;12.30;99.90;;;;;;5080987;28;20228;-84
2021/07/02 03:10:09;;;;;;;13.13;7.87;;;12.30;99.90;;;;;;5078231;28;20184;-84
2021/07/02 03:12:35;;;;;;;15.90;8.33;;;12.30;99.90;;;;;;5077894;28;20206;-84
2021/07/02 03:15:01;;;;;;;10.80;8.13;;;12.30;99.90;;;;;;5078190;28;20501;-84
2021/07/02 03:17:26;;;;;;;10.07;7.83;;;12.20;99.90;;;;;;5079948;28;20177;-84
2021/07/02 03:19:52;;;;;;;11.83;8.30;;;12.20;99.90;;;;;;5089536;28;20204;-84
2021/07/02 03:22:17;;;;;;;9.37;7.60;;;12.20;99.90;;;;;;5087809;28;20185;-85
2021/07/02 03:24:43;;;;;;;11.93;8.20;;;12.20;99.90;;;;;;5082171;28;20221;-84
2021/07/02 03:27:09;;;;;;;13.27;8.57;;;12.20;99.90;;;;;;5083647;28;20657;-84
2021/07/02 03:29:36;;;;;;;11.10;8.40;;;12.10;99.90;;;;;;5081288;28;20204;-84
2021/07/02 03:32:02;;;;;;;12.73;8.60;;;12.10;99.90;;;;;;5081138;28;20181;-84
2021/07/02 03:34:28;;;;;;;17.10;8.93;;;12.10;99.90;;;;;;5081380;28;20202;-84
2021/07/02 03:36:53;;;;;;;15.00;9.63;;;12.10;99.90;;;;;;5081762;28;20226;-84
2021/07/02 03:39:19;;;;;;;17.00;9.47;;;12.10;99.90;;;;;;5082800;28;20673;-84
2021/07/02 03:41:45;;;;;;;14.53;9.53;;;12.10;99.90;;;;;;5081183;28;20191;-85
2021/07/02 03:44:10;;;;;;;11.80;8.67;;;12.10;99.90;;;;;;5082272;28;20302;-84
2021/07/02 03:46:36;;;;;;;12.43;8.87;;;12.00;99.90;;;;;;5082583;28;20671;-84
2021/07/02 03:49:02;;;;;;;15.03;8.27;;;12.00;99.90;;;;;;5080973;28;20217;-84
2021/07/02 03:51:28;;;;;;;14.73;9.63;;;12.10;99.90;;;;;;5081300;28;20173;-84
2021/07/02 03:53:53;;;;;;;11.60;8.53;;;12.10;99.90;;;;;;5082675;28;20580;-84
2021/07/02 03:56:19;;;;;;;14.40;9.17;;;12.10;99.90;;;;;;5080978;28;20230;-84
2021/07/02 03:58:45;;;;;;;11.40;8.17;;;12.20;99.90;;;;;;5083077;28;20203;-84
2021/07/02 04:01:10;;;;;;;14.73;8.50;;;12.20;99.90;;;;;;5082610;28;20187;-84
2021/07/02 04:03:36;;;;;;;14.27;8.83;;;12.20;99.90;;;;;;5080915;28;20207;-84
2021/07/02 04:06:02;;;;;;;14.17;9.17;;;12.20;99.90;;;;;;5080918;28;20324;-84
2021/07/02 04:08:28;;;;;;;10.20;8.97;;;12.30;99.90;;;;;;5081475;28;20209;-85
2021/07/02 04:10:54;;;;;;;12.03;8.83;;;12.30;99.90;;;;;;5080610;28;20192;-84
2021/07/02 04:13:20;;;;;;;12.00;8.63;;;12.50;99.90;;;;;;5082798;28;20239;-84
2021/07/02 04:15:46;;;;;;;10.87;7.93;;;12.50;99.90;;;;;;5081076;28;20237;-84
2021/07/02 04:18:11;;;;;;;9.70;7.80;;;12.50;99.90;;;;;;5082025;28;20258;-84
2021/07/02 04:20:38;;;;;;;8.70;7.33;;;12.50;99.90;;;;;;5076261;28;20180;-84
2021/07/02 04:23:05;;;;;;;9.87;7.97;;;12.50;99.90;;;;;;5079421;28;20184;-85
2021/07/02 04:25:30;;;;;;;9.57;7.53;;;12.60;99.90;;;;;;5082531;28;20218;-85
2021/07/02 04:27:56;;;;;;;10.87;7.20;;;12.60;99.90;;;;;;5080786;28;20617;-84
2021/07/02 04:30:22;;;;;;;11.63;7.50;;;12.60;99.90;;;;;;5081147;28;20187;-84
2021/07/02 04:32:47;;;;;;;9.57;7.10;;;12.60;99.90;;;;;;5080330;28;20261;-85
2021/07/02 04:35:14;;;;;;;8.53;7.63;;;12.60;99.90;;;;;;5080983;28;20205;-85
2021/07/02 04:37:40;;;;;;;9.73;7.43;;;12.60;99.90;;;;;;5080839;28;20186;-85
2021/07/02 04:40:08;;;;;;;7.60;6.33;;;12.60;99.90;;;;;;5082638;28;20172;-84
2021/07/02 04:42:34;;;;;;;8.57;7.13;;;12.60;99.90;;;;;;5080422;28;20213;-85
2021/07/02 04:44:59;;;;;;;9.23;6.53;;;12.60;99.90;;;;;;5081045;28;20180;-85
2021/07/02 04:47:25;;;;;;;10.03;6.77;;;12.60;99.90;;;;;;5080357;28;20308;-85
2021/07/02 04:49:51;;;;;;;7.37;6.53;;;12.60;99.90;;;;;;5080439;28;20232;-84
2021/07/02 04:52:16;;;;;;;7.63;6.40;;;12.50;99.90;;;;;;5080671;28;20215;-84
2021/07/02 04:54:42;;;;;;;8.20;6.27;;;12.60;99.90;;;;;;5080079;28;20182;-84
2021/07/02 04:57:08;;;;;;;8.27;7.17;;;12.60;99.90;;;;;;5081833;28;20653;-84
2021/07/02 04:59:36;;;;;;;10.73;7.70;;;12.70;99.90;;;;;;5080139;28;20576;-84
2021/07/02 05:02:04;;;;;;;10.97;6.93;;;12.70;99.90;;;;;;5080510;28;20183;-84
2021/07/02 05:04:30;;;;;;;11.47;7.17;;;12.90;99.90;;;;;;5081407;28;20187;-84
2021/07/02 05:06:56;;;;;;;8.23;7.30;;;12.90;99.90;;;;;;5078245;28;20180;-84
2021/07/02 05:09:22;;;;;;;7.60;6.63;;;13.00;99.90;;;;;;5079676;28;20237;-84
2021/07/02 05:11:48;;;;;;;8.80;6.83;;;13.10;99.90;;;;;;5078273;28;20204;-84
2021/07/02 05:14:14;;;;;;;8.30;6.07;;;13.20;99.90;;;;;;5078473;28;20173;-84
2021/07/02 05:16:40;;;;;;;8.13;6.23;;;13.20;99.90;;;;;;5078946;28;20267;-84
2021/07/02 05:19:06;;;;;;;7.57;5.90;;;13.30;99.90;;;;;;5078798;28;20204;-84
2021/07/02 05:21:32;;;;;;;6.97;5.60;;;13.30;99.90;;;;;;5077632;28;20184;-84
2021/07/02 05:23:57;;;;;;;7.77;5.43;;;13.30;99.90;;;;;;5078467;28;20202;-84
2021/07/02 05:26:23;;;;;;;7.30;5.70;;;13.30;99.90;;;;;;5079564;28;20184;-84
2021/07/02 05:28:49;;;;;;;7.17;5.80;;;13.30;99.90;;;;;;5078646;28;20274;-84
2021/07/02 05:31:16;;;;;;;9.37;6.40;;;13.30;99.90;;;;;;5080918;28;20177;-84
2021/07/02 05:33:42;;;;;;;7.87;6.10;;;13.50;99.90;;;;;;5075687;28;20181;-82
2021/07/02 05:36:08;;;;;;;10.40;6.17;;;13.60;99.90;;;;;;5076359;28;20205;-84
2021/07/02 05:38:34;;;;;;;8.00;6.00;;;13.80;99.90;;;;;;5075546;28;20208;-83
2021/07/02 05:40:59;;;;;;;6.40;5.70;;;13.80;99.90;;;;;;5076581;28;20185;-83
2021/07/02 05:43:25;;;;;;;7.47;5.97;;;13.80;99.90;;;;;;5075397;28;20176;-83
2021/07/02 05:45:52;;;;;;;7.87;6.27;;;13.90;99.90;;;;;;5075530;28;20707;-83
2021/07/02 05:48:19;;;;;;;8.20;6.20;;;14.00;99.90;;;;;;5081536;28;20212;-83
2021/07/02 05:50:45;;;;;;;7.10;5.13;;;14.10;99.90;;;;;;5087419;28;20234;-84
2021/07/02 05:53:12;;;;;;;8.40;6.23;;;14.10;99.90;;;;;;5082667;28;20634;-83
2021/07/02 05:55:37;;;;;;;7.47;5.87;;;14.10;99.90;;;;;;5083186;28;20169;-84
2021/07/02 05:58:03;;;;;;;7.20;6.00;;;14.10;99.90;;;;;;5082542;28;20226;-83
2021/07/02 06:00:29;;;;;;;6.27;5.10;;;14.20;99.90;;;;;;5084593;28;20176;-83
2021/07/02 06:02:55;;;;;;;7.07;5.47;;;14.20;99.90;;;;;;5083209;28;20180;-83
2021/07/02 06:05:20;;;;;;;8.03;5.40;;;14.10;99.90;;;;;;5081098;28;20185;-83
2021/07/02 06:07:48;;;;;;;8.70;6.40;;;14.10;99.90;;;;;;5081144;28;20266;-83
2021/07/02 06:10:16;;;;;;;6.23;5.30;;;14.20;99.90;;;;;;5082480;28;20178;-83
2021/07/02 06:12:42;;;;;;;9.33;5.90;;;14.30;99.90;;;;;;5082643;28;20173;-83
2021/07/02 06:15:08;;;;;;;7.47;6.10;;;14.40;99.90;;;;;;5080831;28;20657;-83
2021/07/02 06:17:34;;;;;;;7.60;6.03;;;14.50;99.90;;;;;;5082305;28;20234;-83
2021/07/02 06:20:02;;;;;;;8.20;5.33;;;14.60;99.90;;;;;;5081204;28;20738;-83
2021/07/02 06:22:28;;;;;;;7.43;6.30;;;14.60;99.90;;;;;;5081100;28;20191;-83
2021/07/02 06:24:53;;;;;;;6.13;5.33;;;14.70;99.90;;;;;;5082204;28;20183;-83
2021/07/02 06:27:19;;;;;;;8.43;5.80;;;14.70;99.90;;;;;;5081825;28;20203;-83
2021/07/02 06:29:45;;;;;;;8.63;5.33;;;14.80;99.90;;;;;;5080817;28;20193;-83
2021/07/02 06:32:10;;;;;;;7.77;5.87;;;14.80;99.90;;;;;;5080516;28;20367;-83
2021/07/02 06:34:36;;;;;;;8.63;5.10;;;14.90;99.90;;;;;;5080928;28;20545;-83
2021/07/02 06:37:02;;;;;;;8.43;5.97;;;14.90;99.90;;;;;;5081810;28;20196;-83
2021/07/02 06:39:27;;;;;;;14.93;5.97;;;14.80;99.90;;;;;;5080738;28;20197;-83
2021/07/02 06:41:53;;;;;;;6.30;5.53;;;14.70;99.90;;;;;;5081968;28;20233;-83
2021/07/02 06:44:19;;;;;;;8.30;5.53;;;14.70;99.90;;;;;;5080646;28;20664;-83
2021/07/02 06:46:44;;;;;;;8.30;6.20;;;14.80;99.90;;;;;;5078920;28;20208;-83
2021/07/02 06:49:10;;;;;;;7.70;5.87;;;14.90;99.90;;;;;;5080086;28;20230;-83
2021/07/02 06:51:37;;;;;;;6.87;4.83;;;14.90;99.90;;;;;;5079994;28;20666;-83
2021/07/02 06:54:03;;;;;;;6.93;4.77;;;14.90;99.90;;;;;;5081230;28;20243;-83
2021/07/02 06:56:30;;;;;;;6.20;4.80;;;15.00;99.90;;;;;;5079828;28;20173;-83
2021/07/02 06:58:56;;;;;;;6.67;5.00;;;15.10;99.90;;;;;;5078496;28;20200;-83
2021/07/02 07:01:23;;;;;;;6.57;5.53;;;15.20;99.90;;;;;;5078949;28;20209;-83
2021/07/02 07:03:49;;;;;;;6.17;4.93;;;15.30;99.90;;;;;;5081051;28;20177;-83
2021/07/02 07:06:15;;;;;;;8.80;5.33;;;15.30;99.90;;;;;;5079680;28;20188;-83
2021/07/02 07:08:41;;;;;;;7.30;5.53;;;15.40;99.90;;;;;;5080199;28;20280;-83
2021/07/02 07:11:07;;;;;;;7.37;5.30;;;15.50;99.90;;;;;;5079326;28;20212;-83
2021/07/02 07:13:32;;;;;;;5.97;4.90;;;15.50;99.90;;;;;;5080581;28;20169;-83
2021/07/02 07:15:58;;;;;;;7.20;4.70;;;15.60;99.90;;;;;;5080126;28;20176;-83
2021/07/02 07:18:24;;;;;;;7.30;4.40;;;15.70;99.90;;;;;;5078559;28;20228;-83
2021/07/02 07:20:50;;;;;;;6.97;4.53;;;15.90;99.90;;;;;;5078644;28;20212;-83
2021/07/02 07:23:16;;;;;;;5.87;4.83;;;16.00;99.90;;;;;;5079031;28;20240;-82
2021/07/02 07:25:42;;;;;;;7.10;5.33;;;16.00;99.90;;;;;;5079080;28;20184;-82
2021/07/02 07:28:07;;;;;;;6.83;5.47;;;16.00;99.90;;;;;;5078255;28;20270;-82
2021/07/02 07:30:33;;;;;;;6.60;5.10;;;15.90;99.90;;;;;;5078948;28;20280;-82
2021/07/02 07:32:59;;;;;;;7.77;5.70;;;15.90;99.90;;;;;;5080340;28;20581;-82
2021/07/02 07:35:31;;;;;;;8.07;5.67;;;15.90;99.90;;;;;;5079200;28;20707;-82
2021/07/02 07:37:57;;;;;;;6.30;5.47;;;16.00;99.90;;;;;;5079522;28;20258;-83
2021/07/02 07:40:25;;;;;;;7.67;5.37;;;16.00;99.90;;;;;;5080739;28;20386;-83
2021/07/02 07:42:51;;;;;;;6.87;5.00;;;16.00;99.90;;;;;;5079580;28;20181;-82
2021/07/02 07:45:18;;;;;;;6.50;5.27;;;16.00;99.90;;;;;;5080520;28;20185;-82
2021/07/02 07:47:43;;;;;;;7.03;5.50;;;16.20;99.90;;;;;;5080683;28;20208;-83
2021/07/02 07:50:12;;;;;;;7.27;4.90;;;16.30;99.90;;;;;;5082336;28;20184;-83
2021/07/02 07:52:46;;;;;;;6.37;4.97;;;16.40;99.90;;;;;;5082192;28;20171;-82
2021/07/02 07:55:12;;;;;;;7.30;5.27;;;16.40;99.90;;;;;;5080298;28;20176;-83
2021/07/02 07:57:38;;;;;;;7.57;5.60;;;16.50;99.90;;;;;;5081661;28;20247;-82
2021/07/02 08:00:06;;;;;;;7.00;5.87;;;16.50;99.90;;;;;;5085123;28;20181;-82
2021/07/02 08:02:31;;;;;;;7.00;5.37;;;16.50;99.90;;;;;;5078164;28;20204;-83
2021/07/02 08:04:57;;;;;;;6.70;5.70;;;16.60;99.90;;;;;;5078210;28;20185;-83
2021/07/02 08:07:23;;;;;;;5.97;5.03;;;16.60;99.90;;;;;;5079000;28;20196;-83
2021/07/02 08:09:49;;;;;;;7.93;6.00;;;16.60;99.90;;;;;;5077886;28;20212;-83
2021/07/02 08:12:15;;;;;;;6.83;5.80;;;16.60;99.90;;;;;;5075326;28;20177;-82
2021/07/02 08:14:40;;;;;;;7.50;5.90;;;16.70;99.90;;;;;;5075655;28;20664;-82
2021/07/02 08:17:06;;;;;;;8.17;5.87;;;16.70;99.90;;;;;;5078427;28;20169;-82
2021/07/02 08:19:32;;;;;;;6.00;5.27;;;16.80;99.90;;;;;;5087476;28;20200;-82
2021/07/02 08:21:57;;;;;;;8.60;6.00;;;16.90;99.90;;;;;;5080075;28;20178;-83
2021/07/02 08:24:23;;;;;;;7.47;6.17;;;17.30;99.90;;;;;;5079626;28;20200;-83
2021/07/02 08:26:55;;;;;;;6.57;5.70;;;17.40;99.90;;;;;;5079942;28;20586;-83
2021/07/02 08:29:26;;;;;;;7.10;5.40;;;17.40;99.90;;;;;;5079704;28;20217;-83
2021/07/02 08:31:52;;;;;;;8.53;5.70;;;17.30;99.90;;;;;;5079698;28;20264;-83
2021/07/02 08:34:19;;;;;;;7.40;5.80;;;17.10;99.90;;;;;;5079650;28;20186;-83
2021/07/02 08:36:44;;;;;;;7.50;5.63;;;17.10;99.90;;;;;;5080566;28;20180;-83
2021/07/02 08:39:10;;;;;;;6.97;5.77;;;17.20;99.90;;;;;;5078663;28;20204;-82
2021/07/02 08:41:39;;;;;;;6.87;5.90;;;17.50;99.90;;;;;;5079005;28;20634;-83
2021/07/02 08:44:06;;;;;;;7.47;5.73;;;17.70;99.90;;;;;;5080559;28;20260;-83
2021/07/02 08:46:34;;;;;;;7.50;5.70;;;17.90;99.90;;;;;;5079227;28;20185;-83
2021/07/02 08:49:01;;;;;;;13.00;6.20;;;17.90;99.90;;;;;;5078515;28;20626;-83
2021/07/02 08:51:26;;;;;;;6.23;5.10;;;18.00;99.90;;;;;;5080731;28;20198;-83
2021/07/02 08:53:55;;;;;;;6.57;5.73;;;18.00;99.90;;;;;;5078968;28;20177;-83
2021/07/02 08:56:22;;;;;;;6.77;5.33;;;17.90;99.90;;;;;;5081208;28;20210;-83
2021/07/02 08:58:47;;;;;;;8.10;5.47;;;17.90;99.90;;;;;;5079729;28;20293;-83
2021/07/02 09:01:36;;;;;;;7.70;6.07;;;17.80;99.90;;;;;;5078858;28;20185;-83
2021/07/02 09:04:22;;;;;;;6.83;5.80;;;17.70;99.90;;;;;;5079416;28;20187;-83
2021/07/02 09:07:09;;;;;;;6.50;5.33;;;17.70;99.90;;;;;;5079406;28;20197;-83
2021/07/02 09:09:48;;;;;;;7.47;5.87;;;17.70;99.90;;;;;;5081920;28;20258;-83
2021/07/02 09:12:15;;;;;;;7.37;5.93;;;17.60;99.90;;;;;;5079308;28;20650;-83
2021/07/02 09:14:57;;;;;;;7.50;5.10;;;17.70;99.90;;;;;;5080364;28;20231;-83
2021/07/02 09:17:24;;;;;;;7.40;5.77;;;17.80;99.90;;;;;;5080032;28;20166;-83
2021/07/02 09:20:08;;;;;;;8.60;5.87;;;18.00;99.90;;;;;;5079899;28;20651;-82
2021/07/02 09:22:54;;;;;;;8.00;6.10;;;18.40;99.90;;;;;;5078793;28;20205;-82
2021/07/02 09:25:33;;;;;;;8.20;5.53;;;18.60;99.90;;;;;;5080260;28;20249;-83
2021/07/02 09:28:05;;;;;;;8.13;5.97;;;18.70;99.90;;;;;;5080178;28;20708;-82
2021/07/02 09:30:37;;;;;;;7.73;6.00;;;18.70;99.90;;;;;;5080534;28;20154;-82
2021/07/02 09:33:10;;;;;;;7.70;5.33;;;18.90;99.90;;;;;;5081067;28;20637;-83
2021/07/02 09:35:55;;;;;;;7.17;5.97;;;19.20;99.90;;;;;;5082490;28;20545;-82
2021/07/02 09:38:40;;;;;;;6.87;5.80;;;19.50;99.90;;;;;;5079281;28;20217;-82
2021/07/02 09:41:08;;;;;;;6.13;5.30;;;19.70;99.90;;;;;;5079511;28;20174;-83
2021/07/02 09:43:34;;;;;;;7.73;5.80;;;19.80;99.90;;;;;;5077838;28;20230;-83
2021/07/02 09:46:03;;;;;;;6.23;5.17;;;19.70;99.90;;;;;;5078768;28;20190;-83
2021/07/02 09:48:31;;;;;;;6.13;5.37;;;19.30;99.90;;;;;;5080229;28;20240;-83
2021/07/02 09:51:03;;;;;;;7.13;5.63;;;19.10;99.90;;;;;;5080776;28;20201;-83
2021/07/02 09:53:34;;;;;;;5.37;4.87;;;19.40;99.90;;;;;;5081457;28;20554;-83
2021/07/02 09:56:02;;;;;;;6.27;4.97;;;19.90;99.90;;;;;;5079250;28;20165;-83
2021/07/02 09:58:36;;;;;;;7.03;5.40;;;20.30;99.90;;;;;;5080884;28;20214;-83
2021/07/02 10:01:03;;;;;;;5.87;5.27;;;20.60;99.90;;;;;;5080189;28;20169;-82
2021/07/02 10:03:31;;;;;;;8.00;5.30;;;20.80;99.90;;;;;;5078508;28;20322;-83
2021/07/02 10:06:01;;;;;;;5.77;4.77;;;21.00;99.90;;;;;;5080546;28;20532;-82
2021/07/02 10:08:35;;;;;;;5.00;4.43;;;21.00;99.90;;;;;;5083235;28;20208;-83
2021/07/02 10:11:03;;;;;;;5.93;4.73;;;20.60;99.90;;;;;;5077772;28;20642;-82
2021/07/02 10:13:31;;;;;;;5.20;4.50;;;20.60;99.90;;;;;;5078362;28;20176;-82
2021/07/02 10:15:59;;;;;;;5.47;4.97;;;20.70;99.90;;;;;;5076511;28;20666;-82
2021/07/02 10:18:27;;;;;;;6.57;5.40;;;21.00;99.90;;;;;;5076762;28;20200;-82
2021/07/02 10:21:01;;;;;;;7.57;5.10;;;21.50;99.90;;;;;;5078252;28;20231;-83
2021/07/02 10:23:39;;;;;;;6.27;4.90;;;21.90;99.90;;;;;;5077541;28;20188;-83
2021/07/02 10:26:08;;;;;;;6.80;4.57;;;22.10;99.90;;;;;;5076603;28;20172;-80
2021/07/02 10:28:36;;;;;;;4.73;3.80;;;21.70;99.90;;;;;;5077716;28;20201;-80
2021/07/02 10:31:03;;;;;;;7.87;5.20;;;21.70;99.90;;;;;;5076246;28;20175;-80
2021/07/02 10:33:32;;;;;;;6.33;4.80;;;21.60;99.90;;;;;;5076116;28;20173;-80
2021/07/02 10:36:01;;;;;;;9.90;4.70;;;21.20;99.90;;;;;;5080197;28;20282;-83
2021/07/02 10:38:41;;;;;;;6.03;4.90;;;21.30;99.90;;;;;;5080533;28;20200;-83
2021/07/02 10:41:26;;;;;;;4.63;4.10;;;21.20;99.90;;;;;;5078087;28;20630;-82
2021/07/02 10:44:10;;;;;;;10.33;4.20;;;21.30;99.90;;;;;;5079595;28;20169;-83
2021/07/02 10:46:41;;;;;;;5.23;4.33;;;21.20;99.90;;;;;;5091589;28;20184;-83
2021/07/02 10:49:11;;;;;;;4.97;3.80;;;21.70;99.90;;;;;;5081331;28;20200;-83
2021/07/02 10:51:39;;;;;;;6.37;4.17;;;22.20;99.90;;;;;;5082138;28;20252;-81
2021/07/02 10:54:35;;;;;;;5.13;4.30;;;22.10;99.90;;;;;;5080599;28;20183;-81
2021/07/02 10:57:07;;;;;;;7.57;4.30;;;21.50;99.90;;;;;;5081729;28;20264;-81
2021/07/02 10:59:42;;;;;;;6.10;4.33;;;21.60;99.90;;;;;;5082221;28;20198;-81
2021/07/02 11:02:14;;;;;;;4.70;3.97;;;21.50;99.90;;;;;;5082743;28;20232;-81
2021/07/02 11:05:01;;;;;;;4.43;3.93;;;21.30;99.90;;;;;;5081452;28;20169;-81
2021/07/02 11:07:30;;;;;;;5.40;4.00;;;21.10;99.90;;;;;;5084676;28;20249;-81
2021/07/02 11:09:57;;;;;;;5.37;4.40;;;20.90;99.90;;;;;;5083260;28;20332;-83
2021/07/02 11:12:36;;;;;;;4.33;3.93;;;20.70;99.90;;;;;;5082955;28;20212;-82
2021/07/02 11:15:02;;;;;;;5.77;4.17;;;20.60;99.90;;;;;;5081938;28;20176;-83
2021/07/02 11:17:32;;;;;;;8.53;4.13;;;21.00;99.90;;;;;;5080407;28;20692;-82
2021/07/02 11:22:44;;;;;;;4.87;4.37;;;21.70;99.90;;;;;;5082664;28;20169;-81
2021/07/02 11:27:53;;;;;;;5.60;4.40;;;22.00;99.90;;;;;;5079511;28;20366;-81
2021/07/02 11:30:22;;;;;;;7.47;3.70;;;22.00;99.90;;;;;;5079211;28;20577;-81
2021/07/02 11:32:57;;;;;;;4.03;3.67;;;21.80;99.90;;;;;;5079059;28;20176;-82
2021/07/02 11:35:24;;;;;;;5.73;4.30;;;21.50;99.90;;;;;;5078397;28;20160;-82
2021/07/02 11:38:02;;;;;;;4.57;4.07;;;21.30;99.90;;;;;;5077729;28;20197;-82
2021/07/02 11:40:45;;;;;;;5.80;3.80;;;21.40;99.90;;;;;;5077629;28;20167;-82
2021/07/02 11:43:11;;;;;;;5.63;4.03;;;21.50;99.90;;;;;;5079213;28;20174;-82
2021/07/02 11:45:44;;;;;;;3.93;3.50;;;21.80;99.90;;;;;;5077877;28;20184;-82
2021/07/02 11:48:19;;;;;;;5.43;4.07;;;22.50;99.90;;;;;;5079382;28;20262;-82
2021/07/02 11:50:52;;;;;;;6.67;4.10;;;23.60;99.90;;;;;;5079053;28;20647;-82
2021/07/02 11:53:31;;;;;;;4.97;3.70;;;24.60;99.90;;;;;;5078358;28;20208;-82
2021/07/02 11:56:02;;;;;;;5.37;3.90;;;25.00;99.90;;;;;;5079682;28;20173;-82
2021/07/02 11:58:32;;;;;;;3.97;3.40;;;25.40;99.90;;;;;;5078933;28;20212;-80
2021/07/02 12:00:59;;;;;;;4.20;3.30;;;25.60;99.90;;;;;;5078739;28;20207;-80
2021/07/02 12:03:26;;;;;;;3.77;3.47;;;26.10;99.90;;;;;;5078781;28;20185;-80
2021/07/02 12:06:00;;;;;;;3.83;3.53;;;25.30;98.30;;;;;;5080668;28;20273;-82
2021/07/02 12:08:28;;;;;;;3.80;3.40;;;25.30;97.70;;;;;;5079898;28;20216;-80
2021/07/02 12:11:05;;;;;;;3.77;3.37;;;25.50;99.80;;;;;;5078670;28;20259;-80
2021/07/02 12:13:34;;;;;;;3.67;3.33;;;26.10;99.90;;;;;;5081664;28;20164;-80
2021/07/02 12:16:11;;;;;;;5.40;3.30;;;26.60;96.10;;;;;;5083525;28;20269;-80
2021/07/02 12:18:38;;;;;;;5.13;3.90;;;26.10;98.40;;;;;;5078761;28;20668;-82
2021/07/02 12:21:13;;;;;;;4.63;3.50;;;26.50;99.50;;;;;;5079220;28;20190;-80
2021/07/02 12:23:43;;;;;;;4.13;3.30;;;25.90;97.40;;;;;;5086193;28;20188;-80
2021/07/02 12:26:22;;;;;;;5.03;4.03;;;24.60;97.90;;;;;;5088159;28;20181;-80
2021/07/02 12:29:02;;;;;;;4.03;3.10;;;24.10;97.50;;;;;;5081137;28;20363;-80
2021/07/02 12:31:32;;;;;;;4.13;3.50;;;24.20;95.50;;;;;;5078567;28;20534;-80
2021/07/02 12:33:58;;;;;;;4.30;3.07;;;23.80;95.60;;;;;;5077019;28;20173;-80
2021/07/02 12:36:25;;;;;;;3.67;3.10;;;24.90;99.90;;;;;;5078078;28;20227;-80
2021/07/02 12:39:06;;;;;;;3.40;3.10;;;25.70;95.80;;;;;;5097416;28;20209;-80
2021/07/02 12:41:36;;;;;;;4.73;3.37;;;26.10;97.30;;;;;;5099027;28;20169;-79
2021/07/02 12:44:02;;;;;;;3.20;2.90;;;26.00;96.50;;;;;;5097126;28;20605;-79
2021/07/02 12:46:27;;;;;;;3.63;3.23;;;25.80;96.40;;;;;;5098237;28;20187;-79
2021/07/02 12:49:27;;;;;;;6.03;3.20;;;25.80;91.30;;;;;;5097429;28;20207;-78
2021/07/02 12:54:47;;;;;;;3.00;2.70;;;26.70;87.20;;;;;;5095657;28;20225;-77